Time;durP1;ratioP1;P1;durP2;ratioP2;P2;SDS_P1;SDS_P2;PMS_P1;PMS_P2;Temp;Humidity;BMP_temperature;BMP_pressure;BME280_temperature;BME280_humidity;BME280_pressure;Samples;Min_cycle;Max_cycle;Signal;HPM_P1;HPM_P2
2022/01/14 00:03:36;;;;;;;12.93;6.07;;;;;;;1.80;100.00;98087.38;10370111;28;20193;-62
2022/01/14 00:08:37;;;;;;;8.67;5.27;;;;;;;1.82;100.00;98090.72;10370455;28;20404;-62
2022/01/14 00:18:49;;;;;;;9.20;5.33;;;;;;;1.86;100.00;98081.94;10369548;28;20229;-62
2022/01/14 00:23:53;;;;;;;10.10;5.37;;;;;;;1.83;100.00;98083.84;10369867;28;20679;-64
2022/01/14 00:34:13;;;;;;;12.23;5.63;;;;;;;1.78;100.00;98074.53;10369663;28;20698;-63
2022/01/14 00:39:14;;;;;;;8.07;5.17;;;;;;;1.89;100.00;98061.13;10369620;28;20228;-63
2022/01/14 00:44:15;;;;;;;8.37;5.20;;;;;;;1.91;100.00;98059.31;10369684;28;20189;-63
2022/01/14 00:49:17;;;;;;;8.63;4.47;;;;;;;1.94;100.00;98046.25;10369649;28;20295;-63
2022/01/14 00:54:18;;;;;;;7.33;4.40;;;;;;;2.05;100.00;98022.53;10369553;28;20186;-61
2022/01/14 00:59:18;;;;;;;9.33;4.97;;;;;;;2.08;100.00;98030.13;10369051;28;20286;-62
2022/01/14 01:04:28;;;;;;;8.80;4.90;;;;;;;1.94;100.00;98030.75;10369291;28;20228;-61
2022/01/14 01:09:30;;;;;;;6.97;4.10;;;;;;;2.00;100.00;98026.22;10369352;28;20691;-62
2022/01/14 01:14:39;;;;;;;9.27;5.13;;;;;;;1.95;100.00;98010.94;10369490;28;20212;-63
2022/01/14 01:19:40;;;;;;;6.03;4.30;;;;;;;1.94;100.00;98010.06;10376039;28;20234;-61
2022/01/14 01:24:41;;;;;;;11.23;5.17;;;;;;;1.93;100.00;98008.41;10376971;28;20319;-63
2022/01/14 01:34:42;;;;;;;12.07;4.93;;;;;;;1.88;100.00;98025.84;10376192;28;20243;-59
2022/01/14 01:39:42;;;;;;;7.67;4.10;;;;;;;1.73;100.00;98036.88;10376428;28;20320;-63
2022/01/14 01:44:44;;;;;;;7.63;3.93;;;;;;;1.66;100.00;98032.91;10375824;28;20682;-61
2022/01/14 01:49:44;;;;;;;8.77;5.20;;;;;;;1.70;100.00;98030.13;10376114;28;20213;-59
2022/01/14 01:54:45;;;;;;;6.83;4.03;;;;;;;1.76;100.00;98029.84;10375618;28;20201;-63
2022/01/14 01:59:45;;;;;;;8.03;4.33;;;;;;;1.71;100.00;98039.53;10375023;28;20328;-61
2022/01/14 02:04:45;;;;;;;8.93;4.83;;;;;;;1.77;100.00;98036.69;10375217;28;20204;-59
2022/01/14 02:09:46;;;;;;;7.30;4.03;;;;;;;1.62;100.00;98044.28;10373662;28;20224;-60
2022/01/14 02:15:08;;;;;;;6.77;3.93;;;;;;;1.54;100.00;98049.78;10375028;28;20193;-63
2022/01/14 02:25:29;;;;;;;8.53;4.43;;;;;;;1.32;100.00;98049.88;10373537;28;20189;-60
2022/01/14 02:30:30;;;;;;;7.40;4.23;;;;;;;1.31;100.00;98049.03;10374018;28;20691;-60
2022/01/14 02:35:32;;;;;;;5.90;3.60;;;;;;;1.27;100.00;98052.63;10374064;28;20216;-61
2022/01/14 02:40:32;;;;;;;8.53;4.53;;;;;;;1.26;100.00;98043.22;10374005;28;20765;-62
2022/01/14 02:45:34;;;;;;;6.20;3.93;;;;;;;1.33;100.00;98044.66;10373586;28;20191;-62
2022/01/14 02:50:42;;;;;;;8.10;4.87;;;;;;;1.24;100.00;98042.44;10373713;28;20217;-59
2022/01/14 02:55:43;;;;;;;10.00;4.60;;;;;;;1.12;100.00;98056.72;10373280;28;20205;-64
2022/01/14 03:00:43;;;;;;;9.00;4.40;;;;;;;1.13;100.00;98042.91;10373148;28;20231;-63
2022/01/14 03:05:44;;;;;;;9.97;5.07;;;;;;;1.05;100.00;98043.22;10373148;28;20181;-62
2022/01/14 03:10:46;;;;;;;8.63;4.27;;;;;;;1.00;100.00;98045.16;10371386;28;20767;-63
2022/01/14 03:15:46;;;;;;;8.00;4.63;;;;;;;0.89;100.00;98043.03;10371184;28;20711;-63
2022/01/14 03:20:52;;;;;;;11.47;4.73;;;;;;;0.74;100.00;98037.69;10372086;28;20335;-64
2022/01/14 03:25:53;;;;;;;8.33;4.50;;;;;;;0.74;100.00;98040.25;10372297;28;20204;-63
2022/01/14 03:30:56;;;;;;;10.70;5.40;;;;;;;0.75;100.00;98039.34;10371928;28;20195;-64
2022/01/14 03:35:57;;;;;;;11.43;5.30;;;;;;;0.62;100.00;98042.41;10371944;28;20276;-62
2022/01/14 03:40:57;;;;;;;8.70;4.90;;;;;;;0.67;100.00;98040.50;10371041;28;20231;-63
2022/01/14 03:45:58;;;;;;;8.20;4.97;;;;;;;0.49;100.00;98038.63;10371325;28;20631;-60
2022/01/14 03:50:58;;;;;;;14.70;5.67;;;;;;;0.48;100.00;98050.69;10371447;28;20222;-61
2022/01/14 03:55:59;;;;;;;8.63;5.33;;;;;;;0.42;100.00;98040.63;10371064;28;20196;-63
2022/01/14 04:00:59;;;;;;;13.43;6.57;;;;;;;0.40;100.00;98041.56;10370992;28;20367;-63
2022/01/14 04:06:00;;;;;;;12.20;5.53;;;;;;;0.33;100.00;98030.69;10370454;28;20208;-62
2022/01/14 04:11:02;;;;;;;11.70;6.07;;;;;;;0.31;100.00;98020.44;10370575;28;20194;-62
2022/01/14 04:16:03;;;;;;;9.50;5.50;;;;;;;0.29;100.00;98022.25;10369908;28;20570;-63
2022/01/14 04:21:03;;;;;;;17.70;6.33;;;;;;;0.22;100.00;98023.38;10414780;22;20330;-63
2022/01/14 04:26:03;;;;;;;11.10;6.50;;;;;;;0.15;100.00;98009.91;10411500;28;20229;-62
2022/01/14 04:31:05;;;;;;;11.43;6.00;;;;;;;0.01;100.00;98014.72;10411423;28;20213;-61
2022/01/14 04:36:06;;;;;;;15.37;5.97;;;;;;;0.08;100.00;98007.63;10411079;28;20197;-62
2022/01/14 04:41:08;;;;;;;9.37;5.30;;;;;;;-0.05;100.00;98007.22;10411187;28;20232;-64
2022/01/14 04:51:10;;;;;;;10.57;5.20;;;;;;;0.00;100.00;98002.75;10415380;28;20358;-63
2022/01/14 04:56:10;;;;;;;9.83;5.40;;;;;;;-0.08;100.00;97997.88;10419301;28;20194;-63
2022/01/14 05:01:11;;;;;;;7.87;4.83;;;;;;;-0.17;100.00;97987.91;10418517;28;20235;-63
2022/01/14 05:06:11;;;;;;;22.20;9.17;;;;;;;-0.21;100.00;97987.22;10419170;28;20184;-62
2022/01/14 05:11:23;;;;;;;18.43;6.80;;;;;;;0.11;100.00;97981.72;10418336;28;20773;-63
2022/01/14 05:16:23;;;;;;;18.90;9.30;;;;;;;0.07;100.00;97964.72;10418201;28;20199;-61
2022/01/14 05:21:24;;;;;;;12.13;6.73;;;;;;;0.06;100.00;97963.00;10417961;28;20236;-64
2022/01/14 05:26:24;;;;;;;12.67;6.73;;;;;;;0.02;100.00;97951.19;10418191;28;20282;-63
2022/01/14 05:31:40;;;;;;;10.33;5.50;;;;;;;0.04;100.00;97965.66;10417869;28;20216;-63
2022/01/14 05:36:41;;;;;;;14.53;6.90;;;;;;;0.03;100.00;97965.72;10417578;28;20224;-64
2022/01/14 05:41:41;;;;;;;12.30;5.43;;;;;;;0.06;100.00;97981.06;10417617;28;20276;-62
2022/01/14 05:46:42;;;;;;;11.17;4.83;;;;;;;0.01;100.00;97976.06;10417165;28;20188;-63
2022/01/14 05:51:42;;;;;;;9.87;5.53;;;;;;;-0.01;100.00;97965.00;10417307;28;20262;-63
2022/01/14 05:56:43;;;;;;;11.97;4.60;;;;;;;0.11;100.00;97968.84;10416767;28;20220;-64
2022/01/14 06:01:44;;;;;;;11.03;5.20;;;;;;;0.08;100.00;97968.97;10415907;28;20216;-65
2022/01/14 06:06:44;;;;;;;9.60;5.03;;;;;;;0.12;100.00;97978.22;10416659;28;20197;-64
2022/01/14 06:11:44;;;;;;;10.40;4.93;;;;;;;-0.02;100.00;97979.59;10416126;28;20559;-64
2022/01/14 06:16:46;;;;;;;8.93;5.60;;;;;;;-0.05;100.00;97963.44;10416257;28;20821;-62
2022/01/14 06:21:47;;;;;;;9.20;4.70;;;;;;;0.09;100.00;97966.34;10415553;28;20698;-65
2022/01/14 06:26:47;;;;;;;8.40;4.90;;;;;;;0.02;100.00;97952.00;10416307;28;20193;-64
2022/01/14 06:31:48;;;;;;;9.17;5.70;;;;;;;-0.06;100.00;97959.19;10415523;28;20713;-64
2022/01/14 06:36:48;;;;;;;7.53;4.80;;;;;;;-0.03;100.00;97948.75;10415561;28;20212;-64
2022/01/14 06:41:49;;;;;;;7.77;4.63;;;;;;;-0.01;100.00;97952.13;10415684;28;20244;-63
2022/01/14 06:46:49;;;;;;;6.87;3.90;;;;;;;0.11;100.00;97936.19;10414620;28;20185;-64
2022/01/14 06:51:49;;;;;;;7.07;4.40;;;;;;;0.16;100.00;97930.84;10414581;28;20223;-64
2022/01/14 06:56:50;;;;;;;6.90;4.50;;;;;;;0.31;100.00;97921.66;10414314;28;20239;-63
2022/01/14 07:01:50;;;;;;;7.80;4.30;;;;;;;0.56;100.00;97913.72;10414315;28;20703;-64
2022/01/14 07:06:50;;;;;;;8.90;4.47;;;;;;;0.65;100.00;97918.50;10414276;28;20604;-64
2022/01/14 07:11:57;;;;;;;6.43;3.97;;;;;;;0.77;100.00;97912.00;10413849;28;20710;-63
2022/01/14 07:16:58;;;;;;;8.80;4.27;;;;;;;0.73;100.00;97889.81;10413265;28;20221;-63
2022/01/14 07:21:58;;;;;;;8.67;4.73;;;;;;;0.80;100.00;97895.56;10413284;28;20243;-63
2022/01/14 07:26:58;;;;;;;7.47;4.67;;;;;;;0.97;100.00;97884.50;10413537;28;20274;-63
2022/01/14 07:31:59;;;;;;;4.93;2.73;;;;;;;0.94;100.00;97875.16;10413276;28;20217;-64
2022/01/14 07:36:59;;;;;;;8.90;4.83;;;;;;;0.93;100.00;97876.03;10412844;28;20231;-64
2022/01/14 07:42:00;;;;;;;5.87;3.20;;;;;;;0.97;100.00;97869.84;10412868;28;20262;-64
2022/01/14 07:47:00;;;;;;;5.50;3.50;;;;;;;1.09;100.00;97871.06;10412685;28;20196;-64
2022/01/14 07:52:00;;;;;;;5.87;4.27;;;;;;;1.11;100.00;97870.97;10412285;28;20211;-65
2022/01/14 07:57:02;;;;;;;5.27;3.57;;;;;;;1.23;100.00;97867.84;10406417;28;20220;-64
2022/01/14 08:02:03;;;;;;;11.17;4.07;;;;;;;1.47;100.00;97865.03;10410513;28;20275;-65
2022/01/14 08:07:10;;;;;;;5.97;3.40;;;;;;;1.93;100.00;97840.44;10410167;28;20215;-65
2022/01/14 08:12:14;;;;;;;6.60;3.93;;;;;;;2.16;100.00;97845.38;10410134;28;20219;-65
2022/01/14 08:17:18;;;;;;;8.07;4.67;;;;;;;1.98;100.00;97837.63;10410099;28;20217;-63
2022/01/14 08:22:18;;;;;;;5.80;3.70;;;;;;;2.07;100.00;97847.53;10409642;28;20232;-64
2022/01/14 08:27:19;;;;;;;5.67;3.40;;;;;;;2.43;100.00;97846.59;10408405;28;20207;-66
2022/01/14 08:32:21;;;;;;;5.73;2.80;;;;;;;2.52;100.00;97862.56;10409793;28;20710;-64
2022/01/14 08:37:21;;;;;;;6.40;3.63;;;;;;;2.76;100.00;97855.31;10408108;28;20220;-65
2022/01/14 08:42:22;;;;;;;7.00;3.77;;;;;;;2.94;100.00;97866.44;10407733;28;20224;-64
2022/01/14 08:47:22;;;;;;;5.30;3.50;;;;;;;3.14;98.90;97852.44;10409050;28;20239;-66
2022/01/14 08:52:23;;;;;;;7.00;3.23;;;;;;;3.56;95.52;97844.09;10408860;28;20220;-65
2022/01/14 08:57:23;;;;;;;7.40;3.90;;;;;;;3.69;93.33;97827.84;10408585;28;20745;-66
2022/01/14 09:02:24;;;;;;;8.63;3.90;;;;;;;4.30;92.51;97823.50;10407568;28;20215;-67
2022/01/14 09:07:24;;;;;;;8.20;3.27;;;;;;;4.49;88.45;97799.06;10409126;28;20251;-66
2022/01/14 09:12:25;;;;;;;6.07;3.70;;;;;;;4.39;87.62;97819.56;10407592;28;20224;-66
2022/01/14 09:17:25;;;;;;;8.00;3.60;;;;;;;4.37;88.71;97844.75;10407705;28;20256;-64
2022/01/14 09:22:28;;;;;;;7.27;3.87;;;;;;;5.17;85.93;97821.78;10390260;28;20232;-69
2022/01/14 09:27:29;;;;;;;9.00;4.10;;;;;;;5.50;86.39;97842.22;10374532;28;20276;-67
2022/01/14 09:32:31;;;;;;;7.93;4.17;;;;;;;6.66;78.01;97746.22;10406353;28;20220;-66
2022/01/14 09:37:31;;;;;;;8.03;4.50;;;;;;;5.26;82.84;97816.00;10406773;28;20301;-69
2022/01/14 09:42:32;;;;;;;9.90;4.20;;;;;;;4.50;86.18;97876.00;10412822;28;20269;-64
2022/01/14 09:47:32;;;;;;;7.43;4.50;;;;;;;5.23;84.35;97852.56;10412757;28;20214;-65
2022/01/14 09:52:33;;;;;;;9.07;4.00;;;;;;;5.29;83.70;97866.97;10413355;28;20204;-65
2022/01/14 09:57:33;;;;;;;6.77;4.53;;;;;;;5.50;84.02;97877.78;10412108;28;20319;-64
2022/01/14 10:02:40;;;;;;;6.80;4.53;;;;;;;5.70;81.37;97843.56;10413224;28;20608;-66
2022/01/14 10:07:40;;;;;;;8.97;5.33;;;;;;;3.86;87.42;97934.03;10413116;28;20196;-64
2022/01/14 10:12:40;;;;;;;7.30;5.40;;;;;;;3.78;88.03;97920.66;10412888;28;20220;-65
2022/01/14 10:17:43;;;;;;;12.97;6.27;;;;;;;2.75;95.28;97959.72;10411431;28;20327;-62
2022/01/14 10:22:46;;;;;;;12.80;6.20;;;;;;;2.87;97.83;97927.22;10412314;28;20240;-64
2022/01/14 10:27:51;;;;;;;13.10;6.73;;;;;;;3.00;98.21;97928.22;10393889;22;20241;-61
2022/01/14 10:32:53;;;;;;;15.10;9.87;;;;;;;2.45;100.00;97914.59;10371788;28;20203;-60
2022/01/14 10:38:01;;;;;;;14.43;7.97;;;;;;;2.99;100.00;97904.09;10370219;28;20220;-61
2022/01/14 10:43:06;;;;;;;18.27;8.23;;;;;;;2.58;100.00;97898.47;10370523;28;20186;-61
2022/01/14 10:48:13;;;;;;;15.07;8.50;;;;;;;2.71;100.00;97898.66;10369570;28;20204;-62
2022/01/14 10:53:22;;;;;;;20.67;10.10;;;;;;;2.57;100.00;97902.78;10370227;28;20295;-62
2022/01/14 10:58:29;;;;;;;17.13;9.80;;;;;;;2.25;100.00;97894.03;10370265;28;20229;-63
2022/01/14 11:03:37;;;;;;;19.47;8.97;;;;;;;1.71;100.00;97906.97;10369257;28;20205;-62
2022/01/14 11:08:37;;;;;;;18.43;10.70;;;;;;;1.73;100.00;97924.06;10367913;28;20268;-59
2022/01/14 11:13:37;;;;;;;20.50;11.60;;;;;;;1.32;100.00;97905.31;10369690;28;20220;-63
2022/01/14 11:18:38;;;;;;;20.13;11.03;;;;;;;0.94;100.00;97925.91;10369199;28;20740;-63
2022/01/14 11:23:39;;;;;;;23.53;11.83;;;;;;;1.10;100.00;97910.59;10367807;28;20241;-62
2022/01/14 11:28:41;;;;;;;21.13;12.03;;;;;;;0.85;100.00;97899.59;10366778;28;20734;-61
2022/01/14 11:33:43;;;;;;;26.40;13.57;;;;;;;0.71;100.00;97930.31;10366044;28;20203;-61
2022/01/14 11:38:44;;;;;;;27.03;13.80;;;;;;;0.60;100.00;97941.06;10368019;28;20307;-63
2022/01/14 11:43:49;;;;;;;26.43;13.70;;;;;;;0.45;100.00;97931.41;10359768;28;20223;-62
2022/01/14 11:48:52;;;;;;;32.00;15.37;;;;;;;-0.14;100.00;97915.69;10331206;28;20193;-61
2022/01/14 11:53:54;;;;;;;31.80;15.77;;;;;;;-0.27;100.00;97919.66;10366373;28;20212;-62
2022/01/14 11:59:17;;;;;;;35.00;17.10;;;;;;;-0.12;100.00;97903.59;10367516;28;20312;-61
2022/01/14 12:04:18;;;;;;;34.73;16.20;;;;;;;-0.07;100.00;97903.44;10366105;28;20790;-61
2022/01/14 12:09:23;;;;;;;37.43;17.23;;;;;;;-0.13;100.00;97898.53;10365011;28;20191;-61
2022/01/14 12:14:44;;;;;;;34.97;16.23;;;;;;;-0.20;100.00;97892.75;10361912;28;20209;-61
2022/01/14 12:19:44;;;;;;;34.00;17.70;;;;;;;-0.25;100.00;97885.22;10362192;28;20221;-60
2022/01/14 12:24:49;;;;;;;49.07;18.80;;;;;;;0.03;100.00;97903.88;10362603;28;20273;-62
2022/01/14 12:29:52;;;;;;;42.57;18.63;;;;;;;-0.08;100.00;97915.44;10364712;28;20193;-59
2022/01/14 12:34:56;;;;;;;45.43;19.83;;;;;;;0.01;100.00;97909.09;10364913;28;20220;-61
2022/01/14 12:40:01;;;;;;;42.77;17.97;;;;;;;0.01;100.00;97879.94;10366696;28;20221;-59
2022/01/14 12:45:03;;;;;;;40.60;17.80;;;;;;;-0.01;100.00;97864.53;10365376;28;20249;-61
2022/01/14 12:50:11;;;;;;;38.90;17.57;;;;;;;0.10;100.00;97846.06;10366422;28;20191;-62
2022/01/14 12:55:12;;;;;;;34.70;18.30;;;;;;;0.11;100.00;97843.44;10366415;28;20209;-62
2022/01/14 13:00:13;;;;;;;40.70;17.60;;;;;;;0.13;100.00;97848.53;10366507;28;20235;-63
2022/01/14 13:05:19;;;;;;;39.10;18.33;;;;;;;0.18;100.00;97854.31;10403451;28;20217;-60
2022/01/14 13:10:21;;;;;;;37.17;16.20;;;;;;;0.28;100.00;97853.03;10407575;28;20271;-59
2022/01/14 13:15:25;;;;;;;40.40;18.33;;;;;;;0.21;100.00;97849.03;10413942;28;20648;-61
2022/01/14 13:20:27;;;;;;;43.67;17.37;;;;;;;0.33;100.00;97835.63;10414574;28;20219;-63
2022/01/14 13:25:31;;;;;;;31.97;16.27;;;;;;;0.56;100.00;97844.13;10413042;28;20274;-60
2022/01/14 13:30:42;;;;;;;40.87;19.23;;;;;;;0.38;100.00;97850.91;10413473;28;20205;-61
2022/01/14 13:35:46;;;;;;;43.97;18.50;;;;;;;0.46;100.00;97848.84;10413990;28;20220;-61
2022/01/14 13:40:55;;;;;;;39.67;18.17;;;;;;;0.71;100.00;97860.69;10413918;28;20567;-63
2022/01/14 13:46:07;;;;;;;46.07;21.40;;;;;;;0.35;100.00;97849.31;10413334;28;20208;-62
2022/01/14 13:51:11;;;;;;;53.37;21.73;;;;;;;0.13;100.00;97839.03;10358560;28;20254;-61
2022/01/14 13:56:22;;;;;;;46.73;20.27;;;;;;;0.14;100.00;97842.47;10350428;28;20320;-62
2022/01/14 14:01:23;;;;;;;54.70;19.40;;;;;;;0.31;100.00;97845.16;10371177;28;20222;-64
2022/01/14 14:06:33;;;;;;;48.97;20.30;;;;;;;0.24;100.00;97824.88;10371996;28;20216;-64
2022/01/14 14:16:37;;;;;;;47.67;21.20;;;;;;;0.31;100.00;97827.13;10370639;28;20244;-59
2022/01/14 14:21:40;;;;;;;55.80;20.30;;;;;;;0.30;100.00;97829.78;10370218;28;20211;-60
2022/01/14 14:26:43;;;;;;;50.03;19.43;;;;;;;0.45;100.00;97854.91;10372144;28;20267;-61
2022/01/14 14:31:43;;;;;;;45.17;18.67;;;;;;;0.40;100.00;97841.38;10371642;28;20197;-62
2022/01/14 14:36:44;;;;;;;45.87;18.40;;;;;;;0.41;100.00;97840.44;10371585;28;20206;-62
2022/01/14 14:41:44;;;;;;;37.97;16.87;;;;;;;0.48;100.00;97847.03;10372477;28;20257;-63
2022/01/14 14:46:45;;;;;;;46.37;20.70;;;;;;;0.38;100.00;97852.66;10371368;28;20211;-63
2022/01/14 14:51:45;;;;;;;44.80;18.70;;;;;;;0.57;100.00;97855.25;10371606;28;20201;-62
2022/01/14 14:56:45;;;;;;;43.23;21.30;;;;;;;0.53;100.00;97850.22;10370963;28;20216;-61
2022/01/14 15:01:46;;;;;;;48.43;19.93;;;;;;;0.59;100.00;97841.41;10370594;28;20268;-63
2022/01/14 15:06:47;;;;;;;41.33;19.73;;;;;;;0.71;100.00;97834.88;10366747;28;20221;-63
2022/01/14 15:11:47;;;;;;;42.07;19.27;;;;;;;0.73;100.00;97834.81;10367409;28;20798;-60
2022/01/14 15:17:10;;;;;;;43.77;20.17;;;;;;;0.66;100.00;97834.25;10367231;28;20309;-63
2022/01/14 15:22:08;;;;;;;41.47;17.23;;;;;;;0.76;100.00;97822.63;10371687;28;20314;-63
2022/01/14 15:27:09;;;;;;;29.53;14.60;;;;;;;0.79;100.00;97826.81;10370788;28;20765;-63
2022/01/14 15:32:09;;;;;;;39.97;18.07;;;;;;;0.82;100.00;97834.41;10369664;28;20201;-63
2022/01/14 15:37:10;;;;;;;40.83;19.17;;;;;;;0.70;100.00;97830.63;10368719;28;20838;-63
2022/01/14 15:42:10;;;;;;;35.60;18.70;;;;;;;0.82;100.00;97821.50;10369477;28;20243;-63
2022/01/14 15:47:11;;;;;;;41.07;19.17;;;;;;;0.92;100.00;97835.69;10368135;28;20299;-62
2022/01/14 15:52:11;;;;;;;40.93;17.90;;;;;;;1.07;100.00;97828.97;10368479;28;20195;-63
2022/01/14 15:57:12;;;;;;;44.93;19.63;;;;;;;0.99;100.00;97823.34;10367840;28;20228;-61
2022/01/14 16:02:13;;;;;;;36.50;18.63;;;;;;;1.06;100.00;97835.06;10369992;28;20193;-62
2022/01/14 16:07:17;;;;;;;45.90;19.70;;;;;;;0.98;100.00;97835.41;10369099;28;20236;-64
2022/01/14 16:12:17;;;;;;;42.50;20.27;;;;;;;1.03;100.00;97846.34;10368461;28;20206;-62
2022/01/14 16:17:18;;;;;;;50.37;20.80;;;;;;;0.95;100.00;97840.72;10367428;28;20232;-63
2022/01/14 16:22:18;;;;;;;41.50;21.40;;;;;;;1.03;100.00;97848.09;10364999;28;20197;-58
2022/01/14 16:27:19;;;;;;;47.87;22.83;;;;;;;0.94;100.00;97851.09;10414397;22;20251;-63
2022/01/14 16:32:23;;;;;;;45.90;21.70;;;;;;;1.02;100.00;97880.78;10409694;28;20189;-62
2022/01/14 16:37:26;;;;;;;48.20;22.57;;;;;;;0.92;100.00;97879.53;10382152;28;20215;-62
2022/01/14 16:42:27;;;;;;;57.40;24.73;;;;;;;0.82;100.00;97876.50;10371318;28;20224;-64
2022/01/14 16:47:28;;;;;;;60.43;27.17;;;;;;;0.84;100.00;97881.59;10372800;28;20278;-64
2022/01/14 16:52:28;;;;;;;51.23;22.27;;;;;;;1.04;100.00;97885.88;10377000;28;20222;-64
2022/01/14 16:57:29;;;;;;;45.23;21.23;;;;;;;0.97;100.00;97890.50;10377191;28;20259;-64
2022/01/14 17:02:29;;;;;;;46.37;21.67;;;;;;;1.05;100.00;97898.72;10377074;28;20300;-64
2022/01/14 17:07:29;;;;;;;46.07;20.80;;;;;;;0.86;100.00;97901.28;10374625;28;21017;-65
2022/01/14 17:12:30;;;;;;;46.73;23.80;;;;;;;1.02;100.00;97913.50;10374591;28;20645;-65
2022/01/14 17:17:31;;;;;;;38.63;17.87;;;;;;;1.10;100.00;97908.84;10374963;28;20231;-64
2022/01/14 17:22:31;;;;;;;35.27;19.73;;;;;;;1.14;100.00;97931.03;10376186;28;20200;-63
2022/01/14 17:27:32;;;;;;;32.27;16.60;;;;;;;1.16;100.00;97936.13;10377095;28;20260;-65
2022/01/14 17:32:32;;;;;;;44.43;21.50;;;;;;;1.12;100.00;97926.81;10377604;28;20224;-62
2022/01/14 17:37:33;;;;;;;26.57;15.67;;;;;;;1.03;100.00;97922.94;10377012;28;20574;-64
2022/01/14 17:42:33;;;;;;;30.63;16.20;;;;;;;1.04;100.00;97933.19;10375772;28;20250;-64
2022/01/14 17:47:33;;;;;;;31.90;15.07;;;;;;;1.07;100.00;97927.03;10376551;28;20209;-64
2022/01/14 17:52:34;;;;;;;29.00;15.23;;;;;;;1.08;100.00;97928.72;10376116;28;20207;-64
2022/01/14 17:57:34;;;;;;;27.00;14.23;;;;;;;1.05;100.00;97927.09;10374939;28;20227;-64
2022/01/14 18:02:35;;;;;;;25.70;13.53;;;;;;;1.01;100.00;97910.09;10375761;28;20190;-64
2022/01/14 18:07:37;;;;;;;26.87;13.80;;;;;;;1.08;100.00;97923.56;10375449;28;20215;-64
2022/01/14 18:12:57;;;;;;;28.27;15.20;;;;;;;1.01;100.00;97923.00;10375478;28;20291;-64
2022/01/14 18:17:57;;;;;;;31.50;15.93;;;;;;;0.95;100.00;97922.41;10374572;28;20616;-64
2022/01/14 18:22:58;;;;;;;27.07;14.10;;;;;;;1.01;100.00;97933.31;10374885;28;20316;-63
2022/01/14 18:27:58;;;;;;;28.47;15.30;;;;;;;1.01;100.00;97924.72;10373805;28;20248;-64
2022/01/14 18:32:58;;;;;;;25.37;13.50;;;;;;;1.10;100.00;97938.97;10374093;28;20210;-64
2022/01/14 18:37:59;;;;;;;21.00;12.57;;;;;;;1.13;100.00;97916.44;10373702;28;20370;-64
2022/01/14 18:42:59;;;;;;;26.57;13.80;;;;;;;1.14;100.00;97909.56;10373633;28;20203;-64
2022/01/14 18:47:59;;;;;;;24.63;12.67;;;;;;;1.23;100.00;97915.13;10373356;28;20220;-64
2022/01/14 18:53:00;;;;;;;27.10;14.97;;;;;;;1.22;100.00;97925.53;10372409;28;20203;-64
2022/01/14 18:58:01;;;;;;;27.23;13.73;;;;;;;1.27;100.00;97931.31;10372467;28;20235;-63
2022/01/14 19:03:01;;;;;;;1999.90;795.50;;;;;;;1.32;100.00;97924.22;10372126;28;20757;-63
2022/01/14 19:08:03;;;;;;;36.57;21.83;;;;;;;1.29;100.00;97915.75;10369975;28;20205;-63
2022/01/14 19:13:05;;;;;;;28.00;15.93;;;;;;;1.38;100.00;97921.34;10369642;28;20192;-61
2022/01/14 19:18:06;;;;;;;29.13;13.30;;;;;;;1.35;100.00;97936.16;10366964;28;20232;-63
2022/01/14 19:23:06;;;;;;;51.43;33.77;;;;;;;1.46;100.00;97927.94;10371795;28;20619;-62
2022/01/14 19:28:07;;;;;;;24.67;12.07;;;;;;;1.47;100.00;97937.31;10369938;28;20228;-62
2022/01/14 19:33:10;;;;;;;26.00;13.93;;;;;;;1.48;100.00;97926.09;10368369;28;20200;-61
2022/01/14 19:38:10;;;;;;;23.43;12.67;;;;;;;1.58;100.00;97932.53;10368137;28;20260;-61
2022/01/14 19:43:12;;;;;;;22.80;13.83;;;;;;;1.47;100.00;97922.69;10370667;28;20672;-62
2022/01/14 19:48:12;;;;;;;22.43;13.03;;;;;;;1.50;100.00;97924.28;10372264;28;20691;-64
2022/01/14 19:53:14;;;;;;;22.77;13.57;;;;;;;1.46;100.00;97930.50;10371658;28;20240;-61
2022/01/14 19:58:15;;;;;;;24.00;13.53;;;;;;;1.62;100.00;97928.88;10376903;28;20223;-64
2022/01/14 20:03:16;;;;;;;26.10;13.47;;;;;;;1.58;100.00;97928.19;10377010;28;20188;-63
2022/01/14 20:08:17;;;;;;;24.13;13.47;;;;;;;1.69;100.00;97930.28;10376196;28;20232;-63
2022/01/14 20:13:17;;;;;;;24.47;13.17;;;;;;;1.68;100.00;97928.59;10379618;28;20185;-64
2022/01/14 20:18:18;;;;;;;20.73;12.13;;;;;;;1.71;100.00;97938.78;10377015;28;20292;-64
2022/01/14 20:23:18;;;;;;;25.50;13.70;;;;;;;1.60;100.00;97935.88;10377675;28;20192;-63
2022/01/14 20:28:19;;;;;;;23.90;13.77;;;;;;;1.57;100.00;97921.34;10376666;28;20233;-63
2022/01/14 20:33:20;;;;;;;22.13;13.33;;;;;;;1.60;100.00;97925.53;10371047;28;20276;-63
2022/01/14 20:38:23;;;;;;;25.77;14.13;;;;;;;1.53;100.00;97913.81;10370818;28;20323;-63
2022/01/14 20:43:29;;;;;;;23.73;13.37;;;;;;;1.58;100.00;97911.88;10368076;28;20193;-62
2022/01/14 20:48:29;;;;;;;24.70;13.60;;;;;;;1.66;100.00;97914.09;10374055;28;20294;-62
2022/01/14 20:53:30;;;;;;;28.37;13.80;;;;;;;1.73;100.00;97903.41;10369586;28;20686;-63
2022/01/14 20:58:30;;;;;;;23.77;13.23;;;;;;;1.62;100.00;97909.97;10369833;28;20274;-63
2022/01/14 21:03:30;;;;;;;27.40;15.20;;;;;;;1.63;100.00;97909.91;10369790;28;20272;-63
2022/01/14 21:08:31;;;;;;;29.93;16.10;;;;;;;1.61;100.00;97916.91;10368954;28;20282;-62
2022/01/14 21:13:31;;;;;;;28.33;15.17;;;;;;;1.59;100.00;97909.22;10369910;28;20693;-62
2022/01/14 21:18:32;;;;;;;30.30;16.47;;;;;;;1.54;100.00;97903.41;10367643;28;20624;-62
2022/01/14 21:23:32;;;;;;;36.47;17.03;;;;;;;1.55;100.00;97891.34;10368842;28;20207;-61
2022/01/14 21:28:33;;;;;;;28.87;15.73;;;;;;;1.60;100.00;97897.13;10368604;28;20236;-61
2022/01/14 21:33:33;;;;;;;32.40;16.03;;;;;;;1.68;100.00;97897.59;10372787;28;20200;-62
2022/01/14 21:38:34;;;;;;;33.40;15.50;;;;;;;1.66;100.00;97907.19;10375833;28;20316;-61
2022/01/14 21:43:34;;;;;;;30.07;16.13;;;;;;;1.73;100.00;97899.97;10375529;28;20274;-61
2022/01/14 21:48:35;;;;;;;37.47;17.20;;;;;;;1.63;100.00;97893.59;10375882;28;20580;-62
2022/01/14 21:53:35;;;;;;;33.57;16.83;;;;;;;1.71;100.00;97887.13;10375475;28;20573;-62
2022/01/14 21:58:35;;;;;;;32.87;15.37;;;;;;;1.67;100.00;97890.78;10375103;28;20767;-61
2022/01/14 22:03:36;;;;;;;28.17;14.10;;;;;;;1.68;100.00;97892.44;10375055;28;20698;-62
2022/01/14 22:08:38;;;;;;;30.07;15.30;;;;;;;1.69;100.00;97909.63;10374486;28;20250;-61
2022/01/14 22:13:48;;;;;;;25.30;13.23;;;;;;;1.66;100.00;97891.69;10375207;28;20197;-61
2022/01/14 22:18:48;;;;;;;29.37;13.93;;;;;;;1.60;100.00;97894.53;10374115;28;20732;-62
2022/01/14 22:23:49;;;;;;;24.67;12.53;;;;;;;1.64;100.00;97895.22;10374819;28;20189;-61
2022/01/14 22:28:49;;;;;;;28.10;14.10;;;;;;;1.57;100.00;97886.94;10397430;22;20896;-62
2022/01/14 22:33:50;;;;;;;35.83;15.40;;;;;;;1.48;100.00;97900.28;10374541;28;20207;-59
2022/01/14 22:38:50;;;;;;;30.67;14.40;;;;;;;1.58;100.00;97904.94;10373858;28;20227;-61
2022/01/14 22:43:50;;;;;;;34.53;14.77;;;;;;;1.43;100.00;97903.06;10373351;28;20223;-59
2022/01/14 22:48:51;;;;;;;29.13;13.67;;;;;;;1.58;100.00;97904.94;10373980;28;20229;-61
2022/01/14 22:53:51;;;;;;;28.50;14.17;;;;;;;1.41;100.00;97903.16;10373483;28;20185;-58
2022/01/14 22:58:51;;;;;;;36.90;14.57;;;;;;;1.56;100.00;97895.59;10373703;28;20363;-61
2022/01/14 23:03:52;;;;;;;32.93;13.53;;;;;;;1.57;100.00;97889.53;10372785;28;20203;-60
2022/01/14 23:08:52;;;;;;;26.67;13.57;;;;;;;1.63;100.00;97904.72;10373093;28;20271;-61
2022/01/14 23:13:52;;;;;;;28.77;15.50;;;;;;;1.58;100.00;97898.97;10372687;28;20189;-62
2022/01/14 23:18:53;;;;;;;37.17;17.03;;;;;;;1.57;100.00;97899.84;10372040;28;20225;-60
2022/01/14 23:23:53;;;;;;;38.17;16.30;;;;;;;1.61;100.00;97891.06;10372615;28;20325;-63
2022/01/14 23:28:54;;;;;;;40.77;16.80;;;;;;;1.63;100.00;97889.25;10371740;28;20335;-60
2022/01/14 23:33:55;;;;;;;34.40;16.43;;;;;;;1.62;100.00;97891.91;10372228;28;20664;-63